Airfield :
LOGIN :

Register | Disclaimer

   EN    FR    IT 

 










Legend :    VFR   Marginal VFR   IFR   Intensive IFR   Very Intensive IFR
Visi :
Ceiling :
>= 8 km
>= 3000ft
5 to 8 km
1000 to 3000 ft
1500m to 5 km
500 to 1000 ft
800 to 1500m
200 to 500 ft
< 800m
< 200 ft
Symbols :   Thunderstorms  Fog  Heavy snow  Heavy precipitations  Wind > 20 kt
SIGMETs :     Misc.  Thunderstorms  Icing  Turbulence  Mountain Waves  Volcanic Ashes







- Airport Elevation : 290 ft
- IATA code : LAI
- Download approach charts


LFRO - Lannion

CURRENT METAR :
  • 170730Z AUTO 23010KT 9999 BKN011 BKN062 OVC098 18/17 Q1015 TEMPO 1300 DZ BR OVC005

EXPIRED METARs :
  • 170700Z AUTO 24013KT 9999 FEW008 SCT012 OVC110 18/17 Q1015 TEMPO 1300 DZ BR OVC005
  • 170630Z AUTO 24011KT 9999 OVC006 18/17 Q1015 BECMG 2000 DZ OVC003
  • 170600Z AUTO 22010KT 190V250 9999 OVC006 18/17 Q1014 BECMG 2000 DZ OVC003
  • 170530Z AUTO 21009KT 5000 -DZ BR OVC004 18/17 Q1014 BECMG 2000 DZ
  • 170500Z AUTO 21009KT 180V250 9999 OVC005 18/18 Q1014

TAF AMD TAF LFRO
Valid from the 17 at 06:00 until the 18 at 06:00 UTC


170644Z 1706/1806 23011KT 9999 BKN015
TEMPO 1706/1724 1300 DZ BR OVC005
No reported NOTAMs for that airfield.



MET'MAP, your aeronautical weather chart ! - Copyright ORBIFLY December 2007 - Disclaimer

ORBIFLY MET'MAP TEAM :

Programming & Development : Alexandra Zaïnal
Concept & Development : Baudouin d'Aumeries
Co-Development & Prog : Marc-Olivier Méhu
Technical & hardware support : Manuel Goepfert

Contact : metmap@orbifly.com




SOURCES & CREDITS :

   NOAA